Avon, Iowa
Current Conditions -  °F | °C
As of 9:54 PM on Saturday 25 Oct 2014 (Local Time) from KDSM Reporting Station
Clear Clear  
Wind Chill: 58°   Ceiling: Unl
Heat Index: 58°   Visibility: 10mi
Dew Point: 38°   Wind: 3mph
Humidity: 47%   Direction: 50°NE
Pressure: 30.07"   Gusts: NA
Location:  41.4707°N, 93.4797°W
Report Text: KDSM 260254Z 05003KT 10SM CLR 14/03 A3007 RMK AO2 SLP180 T01440033 53004
Loading
Personal Weather Stations






























Interactive Weather Map
Tropical Storm Tracking
New forecast layout! Learn more

10-Day Weather Forecast

Advertisements
Track Severe Weather on mobile